Latest Coastal Weather Observations for Mandurah

IDW60701

Issued at 2:25 am WST Wednesday 24 September 2014 (issued every 10 minutes, with the page automatically refreshed every 10 minutes)

About coastal observations | Map of coastal stations | Coastal observations for WA | Marine services | Other Formats
Station Details ID: 009977 Name: MANDURAH Lat: -32.52 Lon: 115.71 Height: 3.0 m
Data from the previous 72 hours. | See also: Recent months at Mandurah
Date/Time
WST
Temp

°C
Wind Pressure Rain
since 9am
mm
Weather Cloud Vis
km
Sea
Height
m
Swell
Dir
 
Speed
knots
Gust
knots
hPa Trend Height
m
Period
s
Dir
24/02:00am 14.4 ENE 4 6 1025.1 - 0.0 - - - - - - -
24/01:30am 14.4 ENE 2 4 1025.4 - 0.0 - - - - - - -
24/01:00am 14.4 E 3 4 1025.6 - 0.0 - - - - - - -
24/12:30am 14.6 ENE 3 5 1025.7 - 0.0 - - - - - - -
24/12:00am 14.6 E 3 5 1026.1 - 0.0 - - - - - - -
 
Date/Time
WST
Temp

°C
Wind Pressure Rain
since 9am
mm
Weather Cloud Vis
km
Sea
Height
m
Swell
Dir
 
Speed
knots
Gust
knots
hPa Trend Height
m
Period
s
Dir
23/11:30pm 14.7 ENE 3 5 1026.3 - 0.0 - - - - - - -
23/11:00pm 14.7 E 3 4 1026.5 - 0.0 - - - - - - -
23/10:30pm 14.7 E 3 4 1026.7 - 0.0 - - - - - - -
23/10:00pm 14.8 ESE 2 4 1026.8 - 0.0 - - - - - - -
23/09:30pm 15.0 SE 2 3 1027.0 - 0.0 - - - - - - -
23/09:00pm 14.9 SE 2 3 1026.8 - 0.0 - - - - - - -
23/08:30pm 15.1 ESE 3 4 1026.7 - 0.0 - - - - - - -
23/08:00pm 15.2 ESE 2 3 1026.4 - 0.0 - - - - - - -
23/07:30pm 15.2 SE 2 3 1026.1 - 0.0 - - - - - - -
23/07:00pm 15.3 SSW 2 3 1026.5 - 0.0 - - - - - - -
23/06:30pm 15.4 S 2 3 1025.9 - 0.0 - - - - - - -
23/06:00pm 15.4 SSW 2 4 1025.7 - 0.0 - - - - - - -
23/05:30pm 15.6 SSW 3 5 1025.3 - 0.0 - - - - - - -
23/05:00pm 15.8 S 3 5 1025.3 - 0.0 - - - - - - -
23/04:30pm 15.9 SSE 4 7 1025.2 - 0.0 - - - - - - -
23/04:00pm 16.2 S 2 4 1025.2 - 0.0 - - - - - - -
23/03:30pm 16.1 SW 3 6 1025.2 - 0.0 - - - - - - -
23/03:00pm 16.5 SW 2 4 1025.4 - 0.0 - - - - - - -
23/02:30pm 16.3 WSW 4 6 1025.6 - 0.0 - - - - - - -
23/02:00pm 16.0 W 5 7 1025.7 - 0.0 - - - - - - -
23/01:30pm 16.3 W 3 5 1025.9 - 0.0 - - - - - - -
23/01:00pm 16.1 SE 2 5 1026.0 - 0.0 - - - - - - -
23/12:30pm 15.8 SSE 4 6 1026.3 - 0.0 - - - - - - -
23/12:00pm 15.6 S 4 7 1026.5 - 0.0 - - - - - - -
23/11:30am 15.4 S 4 5 1026.4 - 0.0 - - - - - - -
23/11:00am 15.2 SSE 4 6 1026.6 - 0.0 - - - - - - -
23/10:30am 15.2 SE 5 8 1027.0 - 0.0 - - - - - - -
23/10:00am 14.7 ESE 5 8 1027.2 - 0.0 - - - - - - -
23/09:30am 14.4 ESE 4 5 1027.2 - 0.0 - - - - - - -
23/09:00am 13.6 ESE 5 8 1027.2 - 2.4 - - - - - - -
23/08:30am 12.8 ESE 3 5 1027.1 - 2.4 - - - - - - -
23/08:00am 12.4 E 3 4 1027.1 - 2.4 - - - - - - -
23/07:30am 12.1 E 1 2 1026.8 - 2.4 - - - - - - -
23/07:00am 11.6 E 1 2 1026.5 - 2.4 - - - - - - -
23/06:30am 11.0 E 1 2 1026.3 - 2.4 - - - - - - -
23/06:00am 10.9 E 2 3 1026.1 - 2.4 - - - - - - -
23/05:30am 10.8 E 2 4 1025.8 - 2.4 - - - - - - -
23/05:00am 10.6 E 2 4 1025.6 - 2.4 - - - - - - -
23/04:30am 10.5 E 2 4 1025.5 - 2.4 - - - - - - -
23/04:00am 10.4 E 3 4 1025.3 - 2.4 - - - - - - -
23/03:30am 10.3 E 3 5 1025.2 - 2.4 - - - - - - -
23/03:00am 10.2 ESE 3 5 1025.3 - 2.4 - - - - - - -
23/02:30am 9.7 ESE 3 5 1025.4 - 2.4 - - - - - - -
23/02:00am 9.7 ESE 3 5 1025.7 - 2.4 - - - - - - -
23/01:30am 9.8 ESE 3 4 1025.9 - 2.4 - - - - - - -
23/01:00am 10.2 ESE 3 4 1025.9 - 2.4 - - - - - - -
23/12:30am 10.5 SE 4 6 1026.1 - 2.4 - - - - - - -
23/12:00am 11.0 SE 3 5 1026.2 - 2.4 - - - - - - -
 
Date/Time
WST
Temp

°C
Wind Pressure Rain
since 9am
mm
Weather Cloud Vis
km
Sea
Height
m
Swell
Dir
 
Speed
knots
Gust
knots
hPa Trend Height
m
Period
s
Dir
22/11:30pm 12.2 SE 5 7 1026.2 - 2.4 - - - - - - -
22/11:00pm 12.7 SSE 5 8 1026.3 - 2.4 - - - - - - -
22/10:30pm 12.9 SSE 8 11 1026.2 - 2.4 - - - - - - -
22/10:00pm 13.1 SSE 9 14 1026.3 - 2.4 - - - - - - -
22/09:30pm 13.5 S 9 13 1026.3 - 2.4 - - - - - - -
22/09:00pm 14.0 SSE 9 15 1025.9 - 2.4 - - - - - - -
22/08:30pm 14.5 S 7 12 1025.8 - 2.4 - - - - - - -
22/08:00pm 14.8 S 7 13 1025.5 - 2.4 - - - - - - -
22/07:30pm 15.0 SSW 8 12 1025.1 - 2.4 - - - - - - -
22/07:00pm 15.0 SSW 8 13 1024.7 - 2.4 - - - - - - -
22/06:30pm 15.1 S 6 10 1024.3 - 2.4 - - - - - - -
22/06:00pm 15.3 S 10 15 1023.9 - 2.4 - - - - - - -
22/05:30pm 15.6 SSW 9 15 1023.7 - 2.4 - - - - - - -
22/05:00pm 15.9 SSW 11 16 1023.4 - 2.4 - - - - - - -
22/04:30pm 16.4 SSW 9 14 1023.1 - 2.4 - - - - - - -
22/04:00pm 16.3 SSW 11 17 1022.7 - 2.4 - - - - - - -
22/03:30pm 16.6 S 11 17 1022.6 - 2.4 - - - - - - -
22/03:00pm 16.9 SSW 10 16 1022.2 - 2.4 - - - - - - -
22/02:30pm 16.6 SSW 12 18 1022.1 - 2.4 - - - - - - -
22/02:00pm 16.8 SSW 9 14 1022.1 - 2.4 - - - - - - -
22/01:30pm 16.5 S 6 11 1022.2 - 2.4 - - - - - - -
22/01:00pm 16.3 S 7 11 1022.4 - 2.4 - - - - - - -
22/12:30pm 16.5 S 6 10 1022.2 - 2.4 - - - - - - -
22/12:00pm 16.2 S 7 10 1022.4 - 2.4 - - - - - - -
22/11:30am 15.4 S 9 14 1022.5 - 2.4 - - - - - - -
22/11:00am 15.4 SSE 8 12 1022.6 - 2.4 - - - - - - -
22/10:30am 14.9 SSE 10 15 1022.6 - 2.4 - - - - - - -
22/10:00am 14.3 SSE 8 14 1022.5 - 2.2 - - - - - - -
22/09:30am 13.7 SSE 9 14 1022.3 - 1.4 - - - - - - -
22/09:00am 12.8 SSE 8 12 1022.3 - 33.6 Rain - - - - - -
22/08:30am 12.4 SSE 8 12 1022.1 - 32.2 - - - - - - -
22/08:00am 11.8 SSE 8 13 1021.7 - 31.2 - - - - - - -
22/07:30am 11.4 SSE 8 15 1021.1 - 30.6 - - - - - - -
22/07:00am 10.7 SSE 8 13 1020.7 - 30.4 - - - - - - -
22/06:30am 10.7 SSE 9 13 1020.0 - 30.0 - - - - - - -
22/06:00am 10.6 SSE 9 17 1019.5 - 29.6 Recent precip. - - - - - -
22/05:30am 11.7 SSE 6 10 1018.9 - 29.2 - - - - - - -
22/05:00am 11.2 SE 14 19 1018.0 - 28.8 - - - - - - -
22/04:30am 11.0 S 13 19 1018.1 - 28.6 - - - - - - -
22/04:00am 12.0 SSE 9 14 1017.1 - 28.4 - - - - - - -
22/03:30am 12.2 SSE 10 15 1016.9 - 28.2 - - - - - - -
22/03:00am 12.1 SSE 9 14 1016.7 - 28.0 Rain - - - - - -
22/02:30am 12.2 S 9 12 1016.4 - 27.6 - - - - - - -
22/02:00am 12.3 SSE 9 14 1016.3 - 27.4 - - - - - - -
22/01:30am 12.6 S 8 15 1016.2 - 27.2 - - - - - - -
22/01:00am 13.0 S 12 18 1015.8 - 27.0 - - - - - - -
22/12:30am 13.1 S 12 19 1015.7 - 26.6 - - - - - - -
22/12:00am 13.4 S 12 17 1015.2 - 26.4 Recent precip. - - - - - -
 
Date/Time
WST
Temp

°C
Wind Pressure Rain
since 9am
mm
Weather Cloud Vis
km
Sea
Height
m
Swell
Dir
 
Speed
knots
Gust
knots
hPa Trend Height
m
Period
s
Dir
21/11:30pm 13.6 S 14 21 1014.8 - 26.2 - - - - - - -
21/11:00pm 13.3 S 13 19 1014.6 - 25.8 - - - - - - -
21/10:30pm 13.0 S 12 18 1014.5 - 25.6 - - - - - - -
21/10:00pm 13.1 S 12 19 1014.3 - 25.2 - - - - - - -
21/09:30pm 13.2 S 14 22 1014.3 - 24.8 - - - - - - -
21/09:00pm 13.1 S 14 23 1013.5 - 24.4 Recent precip. - - - - - -
21/08:30pm 12.9 S 14 18 1013.1 - 24.0 - - - - - - -
21/08:16pm 12.8 S 15 26 1012.8 - 23.8 - - - - - - -
21/08:00pm 12.7 S 15 22 1012.4 - 23.6 - - - - - - -
21/07:33pm 12.9 SSE 16 27 1011.6 - 23.2 - - - - - - -
21/07:30pm 12.7 SSE 17 26 1011.6 - 23.2 - - - - - - -
21/07:00pm 12.9 S 17 28 1011.1 - 22.8 - - - - - - -
21/06:33pm 12.7 S 16 27 1010.7 - 22.2 - - - - - - -
21/06:30pm 12.9 S 15 21 1010.4 - 22.2 - - - - - - -
21/06:00pm 12.8 S 17 23 1009.3 - 21.6 Rain - - - - - -
21/05:46pm 12.8 S 27 38 1008.1 - 21.2 - - - - - - -
21/05:44pm 12.7 S 30 38 1008.0 - 21.2 - - - - - - -
21/05:30pm 13.1 S 17 30 1007.7 - 20.8 - - - - - - -
21/05:25pm 13.1 S 15 26 1008.0 - 20.6 - - - - - - -
21/05:00pm 13.9 NW 5 10 1008.1 - 20.0 - - - - - - -
21/04:30pm 14.0 NW 7 10 1008.3 - 19.0 - - - - - - -
21/04:00pm 15.0 NW 13 16 1007.5 - 18.2 - - - - - - -
21/03:30pm 15.5 N 10 12 1006.9 - 17.4 - - - - - - -
21/03:00pm 15.0 NNW 9 13 1006.8 - 16.2 Rain - - - - - -
21/02:30pm 14.4 NNW 5 8 1007.3 - 15.2 - - - - - - -
21/02:00pm 14.5 ENE 3 5 1007.3 - 14.2 - - - - - - -
21/01:30pm 14.2 ESE 3 4 1006.3 - 12.8 - - - - - - -
21/01:00pm 14.2 SW 6 9 1007.2 - 11.2 - - - - - - -
21/12:30pm 14.2 W 9 13 1007.1 - 9.8 - - - - - - -
21/12:00pm 14.3 WSW 6 9 1007.2 - 8.4 Rain - - - - - -
21/11:30am 14.6 WSW 11 18 1007.0 - 7.2 - - - - - - -
21/11:00am 14.4 SSW 9 14 1006.2 - 6.0 - - - - - - -
21/10:30am 14.0 SW 15 21 1006.4 - 5.2 - - - - - - -
21/10:00am 14.8 SW 13 18 1005.4 - 4.0 - - - - - - -
21/09:30am 15.4 SW 13 22 1005.3 - 2.6 - - - - - - -
21/09:08am 16.8 W 17 22 1005.2 - 0.4 - - - - - - -
21/09:05am 18.3 WNW 22 26 1005.2 - 0.0 - - - - - - -
21/09:00am 19.6 N 28 36 1003.8 - 0.0 - - - - - - -
21/08:37am 19.9 N 26 36 1003.4 - 0.0 - - - - - - -
21/08:30am 19.8 N 26 33 1003.3 - 0.0 - - - - - - -
21/08:16am 19.7 N 26 37 1003.2 - 0.0 - - - - - - -
21/08:00am 19.7 N 26 34 1003.2 - 0.0 - - - - - - -
21/07:30am 19.3 N 25 32 1003.5 - 0.0 - - - - - - -
21/07:00am 19.0 N 23 28 1003.9 - 0.0 - - - - - - -
21/06:30am 18.6 NNE 22 27 1003.5 - 0.0 - - - - - - -
21/06:00am 18.6 NNE 21 27 1003.7 - 0.0 - - - - - - -
21/05:30am 18.9 N 21 26 1004.4 - 0.0 - - - - - - -
21/05:00am 19.1 N 20 24 1004.8 - 0.0 - - - - - - -
21/04:30am 19.0 N 20 26 1005.3 - 0.0 - - - - - - -
21/04:00am 18.9 N 18 21 1005.2 - 0.0 - - - - - - -
21/03:30am 19.0 N 17 22 1005.7 - 0.0 - - - - - - -
21/03:00am 18.1 N 15 18 1006.0 - 0.0 - - - - - - -
21/02:30am 17.8 NNE 13 16 1006.6 - 0.0 - - - - - - -

Other Formats:

Comma delimited format used in spreadsheet applications
http://www.bom.gov.au/fwo/IDW60701/IDW60701.94605.axf

JavaScript Object Notation format (JSON) in row-major order
http://www.bom.gov.au/fwo/IDW60701/IDW60701.94605.json